sensor_id;sensor_type;location;lat;lon;timestamp;P1;P2;P0
46573;PMS5003;32299;53.366;-1.544;2022-09-12T00:00:44;9;7;
46573;PMS5003;32299;53.366;-1.544;2022-09-12T00:03:10;3;3;
46573;PMS5003;32299;53.366;-1.544;2022-09-12T00:05:39;7;6;
46573;PMS5003;32299;53.366;-1.544;2022-09-12T00:08:07;9;7;
46573;PMS5003;32299;53.366;-1.544;2022-09-12T00:10:36;6;4;
46573;PMS5003;32299;53.366;-1.544;2022-09-12T00:13:04;11;4;
46573;PMS5003;32299;53.366;-1.544;2022-09-12T00:15:31;5;4;
46573;PMS5003;32299;53.366;-1.544;2022-09-12T00:18:03;6;6;
46573;PMS5003;32299;53.366;-1.544;2022-09-12T00:20:30;5;5;
46573;PMS5003;32299;53.366;-1.544;2022-09-12T00:22:58;6;6;
46573;PMS5003;32299;53.366;-1.544;2022-09-12T00:25:25;8;7;
46573;PMS5003;32299;53.366;-1.544;2022-09-12T00:27:52;8;7;
46573;PMS5003;32299;53.366;-1.544;2022-09-12T00:30:20;5;5;
46573;PMS5003;32299;53.366;-1.544;2022-09-12T00:32:47;8;6;
46573;PMS5003;32299;53.366;-1.544;2022-09-12T00:35:14;6;6;
46573;PMS5003;32299;53.366;-1.544;2022-09-12T00:37:41;8;6;
46573;PMS5003;32299;53.366;-1.544;2022-09-12T00:40:09;8;7;
46573;PMS5003;32299;53.366;-1.544;2022-09-12T00:42:36;8;6;
46573;PMS5003;32299;53.366;-1.544;2022-09-12T00:45:04;5;5;
46573;PMS5003;32299;53.366;-1.544;2022-09-12T00:47:31;6;6;
46573;PMS5003;32299;53.366;-1.544;2022-09-12T00:50:03;6;6;
46573;PMS5003;32299;53.366;-1.544;2022-09-12T00:52:34;9;8;
46573;PMS5003;32299;53.366;-1.544;2022-09-12T00:55:07;6;6;
46573;PMS5003;32299;53.366;-1.544;2022-09-12T00:57:39;8;6;
46573;PMS5003;32299;53.366;-1.544;2022-09-12T01:00:12;6;5;
46573;PMS5003;32299;53.366;-1.544;2022-09-12T01:02:42;9;9;
46573;PMS5003;32299;53.366;-1.544;2022-09-12T01:05:12;9;7;
46573;PMS5003;32299;53.366;-1.544;2022-09-12T01:07:40;10;9;
46573;PMS5003;32299;53.366;-1.544;2022-09-12T01:10:08;6;6;
46573;PMS5003;32299;53.366;-1.544;2022-09-12T01:12:36;8;7;
46573;PMS5003;32299;53.366;-1.544;2022-09-12T01:15:06;16;8;
46573;PMS5003;32299;53.366;-1.544;2022-09-12T01:17:36;9;7;
46573;PMS5003;32299;53.366;-1.544;2022-09-12T01:20:20;10;8;
46573;PMS5003;32299;53.366;-1.544;2022-09-12T01:23:21;11;9;
46573;PMS5003;32299;53.366;-1.544;2022-09-12T01:26:11;8;8;
46573;PMS5003;32299;53.366;-1.544;2022-09-12T01:28:57;10;9;
46573;PMS5003;32299;53.366;-1.544;2022-09-12T01:31:40;10;6;
46573;PMS5003;32299;53.366;-1.544;2022-09-12T01:34:14;10;8;
46573;PMS5003;32299;53.366;-1.544;2022-09-12T01:36:51;10;8;
46573;PMS5003;32299;53.366;-1.544;2022-09-12T01:39:28;7;7;
46573;PMS5003;32299;53.366;-1.544;2022-09-12T01:42:06;7;7;
46573;PMS5003;32299;53.366;-1.544;2022-09-12T01:44:45;12;7;
46573;PMS5003;32299;53.366;-1.544;2022-09-12T01:47:20;10;10;
46573;PMS5003;32299;53.366;-1.544;2022-09-12T01:49:55;11;10;
46573;PMS5003;32299;53.366;-1.544;2022-09-12T01:52:27;9;9;
46573;PMS5003;32299;53.366;-1.544;2022-09-12T01:55:00;11;10;
46573;PMS5003;32299;53.366;-1.544;2022-09-12T01:57:34;10;9;
46573;PMS5003;32299;53.366;-1.544;2022-09-12T02:00:08;16;12;
46573;PMS5003;32299;53.366;-1.544;2022-09-12T02:02:38;10;8;
46573;PMS5003;32299;53.366;-1.544;2022-09-12T02:05:11;8;8;
46573;PMS5003;32299;53.366;-1.544;2022-09-12T02:07:45;9;9;
46573;PMS5003;32299;53.366;-1.544;2022-09-12T02:10:15;9;8;
46573;PMS5003;32299;53.366;-1.544;2022-09-12T02:12:49;13;8;
46573;PMS5003;32299;53.366;-1.544;2022-09-12T02:15:22;10;8;
46573;PMS5003;32299;53.366;-1.544;2022-09-12T02:17:54;9;9;
46573;PMS5003;32299;53.366;-1.544;2022-09-12T02:20:24;10;10;
46573;PMS5003;32299;53.366;-1.544;2022-09-12T02:22:54;8;8;
46573;PMS5003;32299;53.366;-1.544;2022-09-12T02:25:23;20;10;
46573;PMS5003;32299;53.366;-1.544;2022-09-12T02:27:54;10;10;
46573;PMS5003;32299;53.366;-1.544;2022-09-12T02:30:27;11;11;
46573;PMS5003;32299;53.366;-1.544;2022-09-12T02:33:04;12;9;
46573;PMS5003;32299;53.366;-1.544;2022-09-12T02:35:38;10;10;
46573;PMS5003;32299;53.366;-1.544;2022-09-12T02:38:12;12;10;
46573;PMS5003;32299;53.366;-1.544;2022-09-12T02:40:45;11;11;
46573;PMS5003;32299;53.366;-1.544;2022-09-12T02:43:13;13;11;
46573;PMS5003;32299;53.366;-1.544;2022-09-12T02:45:41;11;11;
46573;PMS5003;32299;53.366;-1.544;2022-09-12T02:48:09;13;11;
46573;PMS5003;32299;53.366;-1.544;2022-09-12T02:50:40;11;10;
46573;PMS5003;32299;53.366;-1.544;2022-09-12T02:53:08;10;10;
46573;PMS5003;32299;53.366;-1.544;2022-09-12T02:55:37;9;9;
46573;PMS5003;32299;53.366;-1.544;2022-09-12T02:58:07;10;9;
46573;PMS5003;32299;53.366;-1.544;2022-09-12T03:00:40;11;11;
46573;PMS5003;32299;53.366;-1.544;2022-09-12T03:03:19;24;10;
46573;PMS5003;32299;53.366;-1.544;2022-09-12T03:04:02;25;9;
46573;PMS5003;32299;53.366;-1.544;2022-09-12T03:06:43;22;12;
46573;PMS5003;32299;53.366;-1.544;2022-09-12T03:09:21;11;11;
46573;PMS5003;32299;53.366;-1.544;2022-09-12T03:12:01;15;14;
46573;PMS5003;32299;53.366;-1.544;2022-09-12T03:14:42;21;13;
46573;PMS5003;32299;53.366;-1.544;2022-09-12T03:17:26;12;12;
46573;PMS5003;32299;53.366;-1.544;2022-09-12T03:20:10;13;13;
46573;PMS5003;32299;53.366;-1.544;2022-09-12T03:22:43;12;11;
46573;PMS5003;32299;53.366;-1.544;2022-09-12T03:25:18;13;12;
46573;PMS5003;32299;53.366;-1.544;2022-09-12T03:27:50;10;8;
46573;PMS5003;32299;53.366;-1.544;2022-09-12T03:30:21;9;9;
46573;PMS5003;32299;53.366;-1.544;2022-09-12T03:32:49;10;10;
46573;PMS5003;32299;53.366;-1.544;2022-09-12T03:35:18;9;8;
46573;PMS5003;32299;53.366;-1.544;2022-09-12T03:37:47;11;11;
46573;PMS5003;32299;53.366;-1.544;2022-09-12T03:40:15;12;11;
46573;PMS5003;32299;53.366;-1.544;2022-09-12T03:42:43;10;10;
46573;PMS5003;32299;53.366;-1.544;2022-09-12T03:45:10;18;13;
46573;PMS5003;32299;53.366;-1.544;2022-09-12T03:47:38;11;11;
46573;PMS5003;32299;53.366;-1.544;2022-09-12T03:50:06;14;13;
46573;PMS5003;32299;53.366;-1.544;2022-09-12T03:52:34;13;12;
46573;PMS5003;32299;53.366;-1.544;2022-09-12T03:55:02;14;13;
46573;PMS5003;32299;53.366;-1.544;2022-09-12T03:57:30;15;13;
46573;PMS5003;32299;53.366;-1.544;2022-09-12T03:59:57;16;13;
46573;PMS5003;32299;53.366;-1.544;2022-09-12T04:02:25;22;16;
46573;PMS5003;32299;53.366;-1.544;2022-09-12T04:04:51;14;14;
46573;PMS5003;32299;53.366;-1.544;2022-09-12T04:07:24;15;14;
46573;PMS5003;32299;53.366;-1.544;2022-09-12T04:09:51;17;14;
46573;PMS5003;32299;53.366;-1.544;2022-09-12T04:12:18;26;15;
46573;PMS5003;32299;53.366;-1.544;2022-09-12T04:14:46;15;14;
46573;PMS5003;32299;53.366;-1.544;2022-09-12T04:17:13;15;14;
46573;PMS5003;32299;53.366;-1.544;2022-09-12T04:19:41;11;11;
46573;PMS5003;32299;53.366;-1.544;2022-09-12T04:22:08;14;13;
46573;PMS5003;32299;53.366;-1.544;2022-09-12T04:24:36;15;14;
46573;PMS5003;32299;53.366;-1.544;2022-09-12T04:27:04;21;13;
46573;PMS5003;32299;53.366;-1.544;2022-09-12T04:29:31;14;14;
46573;PMS5003;32299;53.366;-1.544;2022-09-12T04:31:57;18;18;
46573;PMS5003;32299;53.366;-1.544;2022-09-12T04:34:25;14;13;
46573;PMS5003;32299;53.366;-1.544;2022-09-12T04:36:55;14;14;
46573;PMS5003;32299;53.366;-1.544;2022-09-12T04:39:23;16;15;
46573;PMS5003;32299;53.366;-1.544;2022-09-12T04:41:50;23;17;
46573;PMS5003;32299;53.366;-1.544;2022-09-12T04:44:17;17;16;
46573;PMS5003;32299;53.366;-1.544;2022-09-12T04:46:45;17;16;
46573;PMS5003;32299;53.366;-1.544;2022-09-12T04:49:14;14;14;
46573;PMS5003;32299;53.366;-1.544;2022-09-12T04:51:42;18;17;
46573;PMS5003;32299;53.366;-1.544;2022-09-12T04:54:11;25;15;
46573;PMS5003;32299;53.366;-1.544;2022-09-12T04:56:42;17;16;
46573;PMS5003;32299;53.366;-1.544;2022-09-12T04:59:11;15;15;
46573;PMS5003;32299;53.366;-1.544;2022-09-12T05:01:40;15;14;
46573;PMS5003;32299;53.366;-1.544;2022-09-12T05:04:08;12;12;
46573;PMS5003;32299;53.366;-1.544;2022-09-12T05:06:36;18;16;
46573;PMS5003;32299;53.366;-1.544;2022-09-12T05:09:05;14;14;
46573;PMS5003;32299;53.366;-1.544;2022-09-12T05:11:34;18;15;
46573;PMS5003;32299;53.366;-1.544;2022-09-12T05:14:02;13;13;
46573;PMS5003;32299;53.366;-1.544;2022-09-12T05:16:30;14;14;
46573;PMS5003;32299;53.366;-1.544;2022-09-12T05:18:57;12;12;
46573;PMS5003;32299;53.366;-1.544;2022-09-12T05:21:25;15;13;
46573;PMS5003;32299;53.366;-1.544;2022-09-12T05:23:53;13;13;
46573;PMS5003;32299;53.366;-1.544;2022-09-12T05:26:21;12;11;
46573;PMS5003;32299;53.366;-1.544;2022-09-12T05:28:49;17;15;
46573;PMS5003;32299;53.366;-1.544;2022-09-12T05:31:17;13;12;
46573;PMS5003;32299;53.366;-1.544;2022-09-12T05:33:46;23;16;
46573;PMS5003;32299;53.366;-1.544;2022-09-12T05:36:15;15;15;
46573;PMS5003;32299;53.366;-1.544;2022-09-12T05:38:44;12;12;
46573;PMS5003;32299;53.366;-1.544;2022-09-12T05:41:12;14;14;
46573;PMS5003;32299;53.366;-1.544;2022-09-12T05:43:41;12;12;
46573;PMS5003;32299;53.366;-1.544;2022-09-12T05:46:09;13;11;
46573;PMS5003;32299;53.366;-1.544;2022-09-12T05:48:38;12;12;
46573;PMS5003;32299;53.366;-1.544;2022-09-12T05:51:07;13;11;
46573;PMS5003;32299;53.366;-1.544;2022-09-12T05:53:38;11;10;
46573;PMS5003;32299;53.366;-1.544;2022-09-12T05:56:07;11;11;
46573;PMS5003;32299;53.366;-1.544;2022-09-12T05:58:37;11;9;
46573;PMS5003;32299;53.366;-1.544;2022-09-12T06:01:06;13;13;
46573;PMS5003;32299;53.366;-1.544;2022-09-12T06:03:35;11;11;
46573;PMS5003;32299;53.366;-1.544;2022-09-12T06:06:05;15;11;
46573;PMS5003;32299;53.366;-1.544;2022-09-12T06:08:33;11;11;
46573;PMS5003;32299;53.366;-1.544;2022-09-12T06:11:01;13;12;
46573;PMS5003;32299;53.366;-1.544;2022-09-12T06:13:31;15;14;
46573;PMS5003;32299;53.366;-1.544;2022-09-12T06:16:03;10;10;
46573;PMS5003;32299;53.366;-1.544;2022-09-12T06:18:32;12;11;
46573;PMS5003;32299;53.366;-1.544;2022-09-12T06:21:01;9;9;
46573;PMS5003;32299;53.366;-1.544;2022-09-12T06:23:29;9;9;
46573;PMS5003;32299;53.366;-1.544;2022-09-12T06:25:56;11;11;
46573;PMS5003;32299;53.366;-1.544;2022-09-12T06:28:23;11;10;
46573;PMS5003;32299;53.366;-1.544;2022-09-12T06:30:51;19;9;
46573;PMS5003;32299;53.366;-1.544;2022-09-12T06:33:19;9;9;
46573;PMS5003;32299;53.366;-1.544;2022-09-12T06:35:46;12;12;
46573;PMS5003;32299;53.366;-1.544;2022-09-12T06:38:13;11;10;
46573;PMS5003;32299;53.366;-1.544;2022-09-12T06:40:41;9;9;
46573;PMS5003;32299;53.366;-1.544;2022-09-12T06:43:09;10;9;
46573;PMS5003;32299;53.366;-1.544;2022-09-12T06:45:37;12;11;
46573;PMS5003;32299;53.366;-1.544;2022-09-12T06:48:04;23;10;
46573;PMS5003;32299;53.366;-1.544;2022-09-12T06:50:32;13;10;
46573;PMS5003;32299;53.366;-1.544;2022-09-12T06:52:59;11;10;
46573;PMS5003;32299;53.366;-1.544;2022-09-12T06:55:27;10;10;
46573;PMS5003;32299;53.366;-1.544;2022-09-12T06:57:54;11;11;
46573;PMS5003;32299;53.366;-1.544;2022-09-12T07:00:21;15;12;
46573;PMS5003;32299;53.366;-1.544;2022-09-12T07:02:52;11;11;
46573;PMS5003;32299;53.366;-1.544;2022-09-12T07:05:19;11;11;
46573;PMS5003;32299;53.366;-1.544;2022-09-12T07:07:47;13;10;
46573;PMS5003;32299;53.366;-1.544;2022-09-12T07:10:14;9;9;
46573;PMS5003;32299;53.366;-1.544;2022-09-12T07:12:41;12;11;
46573;PMS5003;32299;53.366;-1.544;2022-09-12T07:15:09;11;11;
46573;PMS5003;32299;53.366;-1.544;2022-09-12T07:17:37;12;12;
46573;PMS5003;32299;53.366;-1.544;2022-09-12T07:20:05;12;12;
46573;PMS5003;32299;53.366;-1.544;2022-09-12T07:22:33;11;10;
46573;PMS5003;32299;53.366;-1.544;2022-09-12T07:25:00;9;8;
46573;PMS5003;32299;53.366;-1.544;2022-09-12T07:27:27;12;11;
46573;PMS5003;32299;53.366;-1.544;2022-09-12T07:29:54;17;12;
46573;PMS5003;32299;53.366;-1.544;2022-09-12T07:32:21;14;11;
46573;PMS5003;32299;53.366;-1.544;2022-09-12T07:34:48;8;8;
46573;PMS5003;32299;53.366;-1.544;2022-09-12T07:37:15;10;10;
46573;PMS5003;32299;53.366;-1.544;2022-09-12T07:39:42;11;10;
46573;PMS5003;32299;53.366;-1.544;2022-09-12T07:42:10;14;11;
46573;PMS5003;32299;53.366;-1.544;2022-09-12T07:44:37;19;12;
46573;PMS5003;32299;53.366;-1.544;2022-09-12T07:47:04;12;12;
46573;PMS5003;32299;53.366;-1.544;2022-09-12T07:49:31;14;14;
46573;PMS5003;32299;53.366;-1.544;2022-09-12T07:51:59;14;13;
46573;PMS5003;32299;53.366;-1.544;2022-09-12T07:54:26;14;11;
46573;PMS5003;32299;53.366;-1.544;2022-09-12T07:56:54;14;14;
46573;PMS5003;32299;53.366;-1.544;2022-09-12T07:59:21;14;14;
46573;PMS5003;32299;53.366;-1.544;2022-09-12T08:01:48;13;11;
46573;PMS5003;32299;53.366;-1.544;2022-09-12T08:04:15;10;9;
46573;PMS5003;32299;53.366;-1.544;2022-09-12T08:06:43;26;9;
46573;PMS5003;32299;53.366;-1.544;2022-09-12T08:09:10;9;8;
46573;PMS5003;32299;53.366;-1.544;2022-09-12T08:11:37;10;9;
46573;PMS5003;32299;53.366;-1.544;2022-09-12T08:14:04;8;6;
46573;PMS5003;32299;53.366;-1.544;2022-09-12T08:16:31;8;8;
46573;PMS5003;32299;53.366;-1.544;2022-09-12T08:19:00;6;6;
46573;PMS5003;32299;53.366;-1.544;2022-09-12T08:21:28;9;9;
46573;PMS5003;32299;53.366;-1.544;2022-09-12T08:23:57;9;7;
46573;PMS5003;32299;53.366;-1.544;2022-09-12T08:26:26;8;8;
46573;PMS5003;32299;53.366;-1.544;2022-09-12T08:28:53;6;6;
46573;PMS5003;32299;53.366;-1.544;2022-09-12T08:31:22;7;7;
46573;PMS5003;32299;53.366;-1.544;2022-09-12T08:33:50;8;7;
46573;PMS5003;32299;53.366;-1.544;2022-09-12T08:36:17;7;7;
46573;PMS5003;32299;53.366;-1.544;2022-09-12T08:38:46;15;7;
46573;PMS5003;32299;53.366;-1.544;2022-09-12T08:41:19;7;6;
46573;PMS5003;32299;53.366;-1.544;2022-09-12T08:43:56;7;7;
46573;PMS5003;32299;53.366;-1.544;2022-09-12T08:46:35;9;8;
46573;PMS5003;32299;53.366;-1.544;2022-09-12T08:49:12;5;4;
46573;PMS5003;32299;53.366;-1.544;2022-09-12T08:51:47;5;5;
46573;PMS5003;32299;53.366;-1.544;2022-09-12T08:54:18;7;6;
46573;PMS5003;32299;53.366;-1.544;2022-09-12T08:56:49;13;7;
46573;PMS5003;32299;53.366;-1.544;2022-09-12T08:59:22;6;6;
46573;PMS5003;32299;53.366;-1.544;2022-09-12T09:01:49;7;7;
46573;PMS5003;32299;53.366;-1.544;2022-09-12T09:04:24;8;6;
46573;PMS5003;32299;53.366;-1.544;2022-09-12T09:07:05;5;5;
46573;PMS5003;32299;53.366;-1.544;2022-09-12T09:09:47;5;5;
46573;PMS5003;32299;53.366;-1.544;2022-09-12T09:12:28;8;7;
46573;PMS5003;32299;53.366;-1.544;2022-09-12T09:15:12;8;7;
46573;PMS5003;32299;53.366;-1.544;2022-09-12T09:17:49;6;6;
46573;PMS5003;32299;53.366;-1.544;2022-09-12T09:20:24;5;5;
46573;PMS5003;32299;53.366;-1.544;2022-09-12T09:22:56;4;4;
46573;PMS5003;32299;53.366;-1.544;2022-09-12T09:25:37;5;5;
46573;PMS5003;32299;53.366;-1.544;2022-09-12T09:28:11;6;6;
46573;PMS5003;32299;53.366;-1.544;2022-09-12T09:30:41;5;5;
46573;PMS5003;32299;53.366;-1.544;2022-09-12T09:33:11;7;6;
46573;PMS5003;32299;53.366;-1.544;2022-09-12T09:35:46;10;6;
46573;PMS5003;32299;53.366;-1.544;2022-09-12T09:38:21;5;5;
46573;PMS5003;32299;53.366;-1.544;2022-09-12T09:40:55;4;4;
46573;PMS5003;32299;53.366;-1.544;2022-09-12T09:43:32;6;6;
46573;PMS5003;32299;53.366;-1.544;2022-09-12T09:46:05;5;5;
46573;PMS5003;32299;53.366;-1.544;2022-09-12T09:48:33;5;5;
46573;PMS5003;32299;53.366;-1.544;2022-09-12T09:51:07;7;7;
46573;PMS5003;32299;53.366;-1.544;2022-09-12T09:53:37;5;5;
46573;PMS5003;32299;53.366;-1.544;2022-09-12T09:56:10;5;5;
46573;PMS5003;32299;53.366;-1.544;2022-09-12T09:58:45;6;6;
46573;PMS5003;32299;53.366;-1.544;2022-09-12T10:01:13;6;6;
46573;PMS5003;32299;53.366;-1.544;2022-09-12T10:03:46;6;6;
46573;PMS5003;32299;53.366;-1.544;2022-09-12T10:06:24;6;6;
46573;PMS5003;32299;53.366;-1.544;2022-09-12T10:09:29;8;7;
46573;PMS5003;32299;53.366;-1.544;2022-09-12T10:11:57;6;6;
46573;PMS5003;32299;53.366;-1.544;2022-09-12T10:14:27;10;6;
46573;PMS5003;32299;53.366;-1.544;2022-09-12T10:16:56;5;5;
46573;PMS5003;32299;53.366;-1.544;2022-09-12T10:19:32;6;5;
46573;PMS5003;32299;53.366;-1.544;2022-09-12T10:22:00;5;4;
46573;PMS5003;32299;53.366;-1.544;2022-09-12T10:24:29;6;4;
46573;PMS5003;32299;53.366;-1.544;2022-09-12T10:27:05;5;5;
46573;PMS5003;32299;53.366;-1.544;2022-09-12T10:29:39;4;4;
46573;PMS5003;32299;53.366;-1.544;2022-09-12T10:32:09;4;4;
46573;PMS5003;32299;53.366;-1.544;2022-09-12T10:34:40;5;5;
46573;PMS5003;32299;53.366;-1.544;2022-09-12T10:37:15;3;3;
46573;PMS5003;32299;53.366;-1.544;2022-09-12T10:39:49;3;3;
46573;PMS5003;32299;53.366;-1.544;2022-09-12T10:42:40;5;5;
46573;PMS5003;32299;53.366;-1.544;2022-09-12T10:45:20;4;4;
46573;PMS5003;32299;53.366;-1.544;2022-09-12T10:47:51;5;4;
46573;PMS5003;32299;53.366;-1.544;2022-09-12T10:50:20;4;4;
46573;PMS5003;32299;53.366;-1.544;2022-09-12T10:52:50;6;3;
46573;PMS5003;32299;53.366;-1.544;2022-09-12T10:55:19;4;4;
46573;PMS5003;32299;53.366;-1.544;2022-09-12T10:57:53;3;3;
46573;PMS5003;32299;53.366;-1.544;2022-09-12T11:00:29;6;4;
46573;PMS5003;32299;53.366;-1.544;2022-09-12T11:03:04;4;4;
46573;PMS5003;32299;53.366;-1.544;2022-09-12T11:05:44;4;4;
46573;PMS5003;32299;53.366;-1.544;2022-09-12T11:08:29;4;4;
46573;PMS5003;32299;53.366;-1.544;2022-09-12T11:11:05;5;5;
46573;PMS5003;32299;53.366;-1.544;2022-09-12T11:13:46;4;4;
46573;PMS5003;32299;53.366;-1.544;2022-09-12T11:16:24;5;5;
46573;PMS5003;32299;53.366;-1.544;2022-09-12T11:19:03;5;5;
46573;PMS5003;32299;53.366;-1.544;2022-09-12T11:21:43;4;3;
46573;PMS5003;32299;53.366;-1.544;2022-09-12T11:24:22;5;5;
46573;PMS5003;32299;53.366;-1.544;2022-09-12T11:27:03;5;3;
46573;PMS5003;32299;53.366;-1.544;2022-09-12T11:29:41;3;3;
46573;PMS5003;32299;53.366;-1.544;2022-09-12T11:32:23;6;4;
46573;PMS5003;32299;53.366;-1.544;2022-09-12T11:35:06;4;4;
46573;PMS5003;32299;53.366;-1.544;2022-09-12T11:37:47;4;4;
46573;PMS5003;32299;53.366;-1.544;2022-09-12T11:40:27;5;3;
46573;PMS5003;32299;53.366;-1.544;2022-09-12T11:43:00;3;3;
46573;PMS5003;32299;53.366;-1.544;2022-09-12T11:45:34;7;4;
46573;PMS5003;32299;53.366;-1.544;2022-09-12T11:48:09;2;2;
46573;PMS5003;32299;53.366;-1.544;2022-09-12T11:50:40;5;3;
46573;PMS5003;32299;53.366;-1.544;2022-09-12T11:53:10;6;3;
46573;PMS5003;32299;53.366;-1.544;2022-09-12T11:55:46;1;1;
46573;PMS5003;32299;53.366;-1.544;2022-09-12T11:58:19;2;2;
46573;PMS5003;32299;53.366;-1.544;2022-09-12T12:00:51;3;3;
46573;PMS5003;32299;53.366;-1.544;2022-09-12T12:03:23;2;2;
46573;PMS5003;32299;53.366;-1.544;2022-09-12T12:06:00;3;3;
46573;PMS5003;32299;53.366;-1.544;2022-09-12T12:08:30;2;2;
46573;PMS5003;32299;53.366;-1.544;2022-09-12T12:11:03;0;0;
46573;PMS5003;32299;53.366;-1.544;2022-09-12T12:13:31;2;2;
46573;PMS5003;32299;53.366;-1.544;2022-09-12T12:16:01;2;2;
46573;PMS5003;32299;53.366;-1.544;2022-09-12T12:18:32;1;1;
46573;PMS5003;32299;53.366;-1.544;2022-09-12T12:21:36;2;2;
46573;PMS5003;32299;53.366;-1.544;2022-09-12T12:24:14;1;1;
46573;PMS5003;32299;53.366;-1.544;2022-09-12T12:26:55;1;1;
46573;PMS5003;32299;53.366;-1.544;2022-09-12T12:29:41;0;0;
46573;PMS5003;32299;53.366;-1.544;2022-09-12T12:32:27;1;1;
46573;PMS5003;32299;53.366;-1.544;2022-09-12T12:35:43;1;1;
46573;PMS5003;32299;53.366;-1.544;2022-09-12T12:38:31;1;1;
46573;PMS5003;32299;53.366;-1.544;2022-09-12T12:41:41;1;1;
46573;PMS5003;32299;53.366;-1.544;2022-09-12T12:44:46;1;1;
46573;PMS5003;32299;53.366;-1.544;2022-09-12T12:47:20;0;0;
46573;PMS5003;32299;53.366;-1.544;2022-09-12T12:49:52;2;2;
46573;PMS5003;32299;53.366;-1.544;2022-09-12T12:52:22;0;0;
46573;PMS5003;32299;53.366;-1.544;2022-09-12T12:54:54;1;1;
46573;PMS5003;32299;53.366;-1.544;2022-09-12T12:57:27;0;0;
46573;PMS5003;32299;53.366;-1.544;2022-09-12T13:00:02;2;2;
46573;PMS5003;32299;53.366;-1.544;2022-09-12T13:02:31;1;1;
46573;PMS5003;32299;53.366;-1.544;2022-09-12T13:05:03;0;0;
46573;PMS5003;32299;53.366;-1.544;2022-09-12T13:07:32;2;1;
46573;PMS5003;32299;53.366;-1.544;2022-09-12T13:10:04;0;0;
46573;PMS5003;32299;53.366;-1.544;2022-09-12T13:12:34;2;2;
46573;PMS5003;32299;53.366;-1.544;2022-09-12T13:15:28;1;1;
46573;PMS5003;32299;53.366;-1.544;2022-09-12T13:18:14;2;1;
46573;PMS5003;32299;53.366;-1.544;2022-09-12T13:20:50;1;1;
46573;PMS5003;32299;53.366;-1.544;2022-09-12T13:23:21;0;0;
46573;PMS5003;32299;53.366;-1.544;2022-09-12T13:25:51;1;1;
46573;PMS5003;32299;53.366;-1.544;2022-09-12T13:28:20;1;1;
46573;PMS5003;32299;53.366;-1.544;2022-09-12T13:30:53;0;0;
46573;PMS5003;32299;53.366;-1.544;2022-09-12T13:33:29;1;1;
46573;PMS5003;32299;53.366;-1.544;2022-09-12T13:36:08;1;1;
46573;PMS5003;32299;53.366;-1.544;2022-09-12T13:39:13;1;1;
46573;PMS5003;32299;53.366;-1.544;2022-09-12T13:41:48;0;0;
46573;PMS5003;32299;53.366;-1.544;2022-09-12T13:44:29;1;1;
46573;PMS5003;32299;53.366;-1.544;2022-09-12T13:47:09;2;1;
46573;PMS5003;32299;53.366;-1.544;2022-09-12T13:49:41;0;0;
46573;PMS5003;32299;53.366;-1.544;2022-09-12T13:52:13;0;0;
46573;PMS5003;32299;53.366;-1.544;2022-09-12T13:54:43;3;1;
46573;PMS5003;32299;53.366;-1.544;2022-09-12T13:57:31;1;1;
46573;PMS5003;32299;53.366;-1.544;2022-09-12T14:00:02;1;1;
46573;PMS5003;32299;53.366;-1.544;2022-09-12T14:02:33;2;1;
46573;PMS5003;32299;53.366;-1.544;2022-09-12T14:05:10;2;1;
46573;PMS5003;32299;53.366;-1.544;2022-09-12T14:07:49;1;1;
46573;PMS5003;32299;53.366;-1.544;2022-09-12T14:10:22;1;1;
46573;PMS5003;32299;53.366;-1.544;2022-09-12T14:12:53;1;1;
46573;PMS5003;32299;53.366;-1.544;2022-09-12T14:15:23;1;1;
46573;PMS5003;32299;53.366;-1.544;2022-09-12T14:17:53;0;0;
46573;PMS5003;32299;53.366;-1.544;2022-09-12T14:20:22;1;1;
46573;PMS5003;32299;53.366;-1.544;2022-09-12T14:22:50;1;1;
46573;PMS5003;32299;53.366;-1.544;2022-09-12T14:25:19;1;1;
46573;PMS5003;32299;53.366;-1.544;2022-09-12T14:27:49;2;1;
46573;PMS5003;32299;53.366;-1.544;2022-09-12T14:30:19;0;0;
46573;PMS5003;32299;53.366;-1.544;2022-09-12T14:33:15;0;0;
46573;PMS5003;32299;53.366;-1.544;2022-09-12T14:35:46;0;0;
46573;PMS5003;32299;53.366;-1.544;2022-09-12T14:38:18;1;1;
46573;PMS5003;32299;53.366;-1.544;2022-09-12T14:40:50;0;0;
46573;PMS5003;32299;53.366;-1.544;2022-09-12T14:43:24;0;0;
46573;PMS5003;32299;53.366;-1.544;2022-09-12T14:45:54;1;1;
46573;PMS5003;32299;53.366;-1.544;2022-09-12T14:48:24;2;1;
46573;PMS5003;32299;53.366;-1.544;2022-09-12T14:50:53;1;1;
46573;PMS5003;32299;53.366;-1.544;2022-09-12T14:53:22;0;0;
46573;PMS5003;32299;53.366;-1.544;2022-09-12T14:55:57;2;1;
46573;PMS5003;32299;53.366;-1.544;2022-09-12T14:58:30;0;0;
46573;PMS5003;32299;53.366;-1.544;2022-09-12T15:00:59;1;1;
46573;PMS5003;32299;53.366;-1.544;2022-09-12T15:03:28;1;1;
46573;PMS5003;32299;53.366;-1.544;2022-09-12T15:05:58;1;1;
46573;PMS5003;32299;53.366;-1.544;2022-09-12T15:08:27;3;2;
46573;PMS5003;32299;53.366;-1.544;2022-09-12T15:10:55;3;3;
46573;PMS5003;32299;53.366;-1.544;2022-09-12T15:13:23;5;4;
46573;PMS5003;32299;53.366;-1.544;2022-09-12T15:15:52;3;3;
46573;PMS5003;32299;53.366;-1.544;2022-09-12T15:18:21;4;3;
46573;PMS5003;32299;53.366;-1.544;2022-09-12T15:20:51;2;1;
46573;PMS5003;32299;53.366;-1.544;2022-09-12T15:23:25;3;3;
46573;PMS5003;32299;53.366;-1.544;2022-09-12T15:25:57;3;3;
46573;PMS5003;32299;53.366;-1.544;2022-09-12T15:28:24;3;3;
46573;PMS5003;32299;53.366;-1.544;2022-09-12T15:30:53;4;4;
46573;PMS5003;32299;53.366;-1.544;2022-09-12T15:33:23;6;5;
46573;PMS5003;32299;53.366;-1.544;2022-09-12T15:35:51;5;5;
46573;PMS5003;32299;53.366;-1.544;2022-09-12T15:38:18;3;3;
46573;PMS5003;32299;53.366;-1.544;2022-09-12T15:40:48;6;5;
46573;PMS5003;32299;53.366;-1.544;2022-09-12T15:43:16;3;3;
46573;PMS5003;32299;53.366;-1.544;2022-09-12T15:45:43;2;2;
46573;PMS5003;32299;53.366;-1.544;2022-09-12T15:48:11;4;3;
46573;PMS5003;32299;53.366;-1.544;2022-09-12T15:50:39;1;1;
46573;PMS5003;32299;53.366;-1.544;2022-09-12T15:53:09;1;1;
46573;PMS5003;32299;53.366;-1.544;2022-09-12T15:55:39;2;2;
46573;PMS5003;32299;53.366;-1.544;2022-09-12T15:58:06;3;3;
46573;PMS5003;32299;53.366;-1.544;2022-09-12T16:00:33;3;3;
46573;PMS5003;32299;53.366;-1.544;2022-09-12T16:03:01;3;3;
46573;PMS5003;32299;53.366;-1.544;2022-09-12T16:05:28;3;3;
46573;PMS5003;32299;53.366;-1.544;2022-09-12T16:07:56;3;3;
46573;PMS5003;32299;53.366;-1.544;2022-09-12T16:10:24;0;0;
46573;PMS5003;32299;53.366;-1.544;2022-09-12T16:12:53;4;3;
46573;PMS5003;32299;53.366;-1.544;2022-09-12T16:15:22;2;2;
46573;PMS5003;32299;53.366;-1.544;2022-09-12T16:17:51;6;4;
46573;PMS5003;32299;53.366;-1.544;2022-09-12T16:20:19;2;2;
46573;PMS5003;32299;53.366;-1.544;2022-09-12T16:22:47;4;4;
46573;PMS5003;32299;53.366;-1.544;2022-09-12T16:25:14;3;3;
46573;PMS5003;32299;53.366;-1.544;2022-09-12T16:27:42;3;3;
46573;PMS5003;32299;53.366;-1.544;2022-09-12T16:30:10;4;4;
46573;PMS5003;32299;53.366;-1.544;2022-09-12T16:32:37;4;2;
46573;PMS5003;32299;53.366;-1.544;2022-09-12T16:35:05;3;3;
46573;PMS5003;32299;53.366;-1.544;2022-09-12T16:37:34;4;4;
46573;PMS5003;32299;53.366;-1.544;2022-09-12T16:40:11;4;4;
46573;PMS5003;32299;53.366;-1.544;2022-09-12T16:42:39;3;3;
46573;PMS5003;32299;53.366;-1.544;2022-09-12T16:45:07;3;3;
46573;PMS5003;32299;53.366;-1.544;2022-09-12T16:47:34;4;4;
46573;PMS5003;32299;53.366;-1.544;2022-09-12T16:50:01;3;3;
46573;PMS5003;32299;53.366;-1.544;2022-09-12T16:52:29;3;3;